sensor_id;sensor_type;location;lat;lon;timestamp;P1;durP1;ratioP1;P2;durP2;ratioP2
11823;SDS011;5969;50.780;7.726;2023-03-14T00:02:00;2.33;;;1.42;;
11823;SDS011;5969;50.780;7.726;2023-03-14T00:04:27;2.60;;;1.15;;
11823;SDS011;5969;50.780;7.726;2023-03-14T00:06:54;2.50;;;1.40;;
11823;SDS011;5969;50.780;7.726;2023-03-14T00:09:21;3.33;;;1.20;;
11823;SDS011;5969;50.780;7.726;2023-03-14T00:11:48;2.78;;;1.17;;
11823;SDS011;5969;50.780;7.726;2023-03-14T00:14:14;2.00;;;1.20;;
11823;SDS011;5969;50.780;7.726;2023-03-14T00:16:41;2.80;;;1.40;;
11823;SDS011;5969;50.780;7.726;2023-03-14T00:19:13;4.05;;;1.30;;
11823;SDS011;5969;50.780;7.726;2023-03-14T00:21:40;3.50;;;1.45;;
11823;SDS011;5969;50.780;7.726;2023-03-14T00:24:07;1.85;;;1.08;;
11823;SDS011;5969;50.780;7.726;2023-03-14T00:26:34;2.40;;;1.20;;
11823;SDS011;5969;50.780;7.726;2023-03-14T00:29:00;2.45;;;1.30;;
11823;SDS011;5969;50.780;7.726;2023-03-14T00:31:27;3.50;;;1.15;;
11823;SDS011;5969;50.780;7.726;2023-03-14T00:33:54;4.10;;;1.85;;
11823;SDS011;5969;50.780;7.726;2023-03-14T00:36:22;6.38;;;1.70;;
11823;SDS011;5969;50.780;7.726;2023-03-14T00:38:50;3.20;;;1.20;;
11823;SDS011;5969;50.780;7.726;2023-03-14T00:41:18;6.90;;;1.73;;
11823;SDS011;5969;50.780;7.726;2023-03-14T00:43:47;3.55;;;1.48;;
11823;SDS011;5969;50.780;7.726;2023-03-14T00:46:14;4.75;;;1.70;;
11823;SDS011;5969;50.780;7.726;2023-03-14T00:48:41;3.30;;;1.60;;
11823;SDS011;5969;50.780;7.726;2023-03-14T00:51:09;5.22;;;1.73;;
11823;SDS011;5969;50.780;7.726;2023-03-14T00:53:40;6.25;;;1.70;;
11823;SDS011;5969;50.780;7.726;2023-03-14T00:56:08;3.38;;;1.63;;
11823;SDS011;5969;50.780;7.726;2023-03-14T00:58:36;4.70;;;1.85;;
11823;SDS011;5969;50.780;7.726;2023-03-14T01:01:06;4.03;;;1.48;;
11823;SDS011;5969;50.780;7.726;2023-03-14T01:03:34;5.85;;;1.60;;
11823;SDS011;5969;50.780;7.726;2023-03-14T01:06:09;5.25;;;1.90;;
11823;SDS011;5969;50.780;7.726;2023-03-14T01:08:37;3.45;;;1.60;;
11823;SDS011;5969;50.780;7.726;2023-03-14T01:11:09;3.75;;;1.90;;
11823;SDS011;5969;50.780;7.726;2023-03-14T01:13:38;4.22;;;1.63;;
11823;SDS011;5969;50.780;7.726;2023-03-14T01:16:06;4.53;;;2.00;;
11823;SDS011;5969;50.780;7.726;2023-03-14T01:18:34;6.70;;;1.90;;
11823;SDS011;5969;50.780;7.726;2023-03-14T01:21:01;4.97;;;1.80;;
11823;SDS011;5969;50.780;7.726;2023-03-14T01:23:29;8.05;;;2.08;;
11823;SDS011;5969;50.780;7.726;2023-03-14T01:25:56;5.85;;;2.20;;
11823;SDS011;5969;50.780;7.726;2023-03-14T01:28:24;5.63;;;1.52;;
11823;SDS011;5969;50.780;7.726;2023-03-14T01:30:51;6.57;;;2.00;;
11823;SDS011;5969;50.780;7.726;2023-03-14T01:33:18;6.40;;;1.98;;
11823;SDS011;5969;50.780;7.726;2023-03-14T01:35:44;6.05;;;1.90;;
11823;SDS011;5969;50.780;7.726;2023-03-14T01:38:11;4.35;;;1.67;;
11823;SDS011;5969;50.780;7.726;2023-03-14T01:40:41;4.25;;;1.60;;
11823;SDS011;5969;50.780;7.726;2023-03-14T01:43:13;6.57;;;1.92;;
11823;SDS011;5969;50.780;7.726;2023-03-14T01:46:11;4.68;;;1.90;;
11823;SDS011;5969;50.780;7.726;2023-03-14T01:48:52;4.85;;;2.05;;
11823;SDS011;5969;50.780;7.726;2023-03-14T01:51:29;6.70;;;1.83;;
11823;SDS011;5969;50.780;7.726;2023-03-14T01:54:01;2.90;;;1.80;;
11823;SDS011;5969;50.780;7.726;2023-03-14T01:56:32;6.53;;;2.03;;
11823;SDS011;5969;50.780;7.726;2023-03-14T01:58:59;7.07;;;2.50;;
11823;SDS011;5969;50.780;7.726;2023-03-14T02:01:31;5.75;;;1.92;;
11823;SDS011;5969;50.780;7.726;2023-03-14T02:03:59;7.25;;;1.92;;
11823;SDS011;5969;50.780;7.726;2023-03-14T02:06:30;5.85;;;1.40;;
11823;SDS011;5969;50.780;7.726;2023-03-14T02:09:02;3.17;;;1.60;;
11823;SDS011;5969;50.780;7.726;2023-03-14T02:11:29;3.30;;;1.45;;
11823;SDS011;5969;50.780;7.726;2023-03-14T02:13:56;4.72;;;1.90;;
11823;SDS011;5969;50.780;7.726;2023-03-14T02:16:25;3.67;;;1.50;;
11823;SDS011;5969;50.780;7.726;2023-03-14T02:18:53;6.07;;;1.75;;
11823;SDS011;5969;50.780;7.726;2023-03-14T02:21:21;4.55;;;1.55;;
11823;SDS011;5969;50.780;7.726;2023-03-14T02:23:57;4.88;;;1.63;;
11823;SDS011;5969;50.780;7.726;2023-03-14T02:26:34;6.60;;;2.30;;
11823;SDS011;5969;50.780;7.726;2023-03-14T02:29:07;4.72;;;1.85;;
11823;SDS011;5969;50.780;7.726;2023-03-14T02:31:34;6.43;;;2.03;;
11823;SDS011;5969;50.780;7.726;2023-03-14T02:34:02;6.13;;;1.85;;
11823;SDS011;5969;50.780;7.726;2023-03-14T02:36:29;6.30;;;2.42;;
11823;SDS011;5969;50.780;7.726;2023-03-14T02:38:58;6.57;;;1.88;;
11823;SDS011;5969;50.780;7.726;2023-03-14T02:41:32;6.10;;;1.85;;
11823;SDS011;5969;50.780;7.726;2023-03-14T02:43:59;5.65;;;1.90;;
11823;SDS011;5969;50.780;7.726;2023-03-14T02:46:28;5.82;;;1.67;;
11823;SDS011;5969;50.780;7.726;2023-03-14T02:48:55;7.30;;;2.10;;
11823;SDS011;5969;50.780;7.726;2023-03-14T02:51:27;7.90;;;2.30;;
11823;SDS011;5969;50.780;7.726;2023-03-14T02:53:55;7.28;;;2.00;;
11823;SDS011;5969;50.780;7.726;2023-03-14T02:56:21;6.55;;;1.88;;
11823;SDS011;5969;50.780;7.726;2023-03-14T02:58:49;5.75;;;1.90;;
11823;SDS011;5969;50.780;7.726;2023-03-14T03:01:16;4.35;;;1.75;;
11823;SDS011;5969;50.780;7.726;2023-03-14T03:03:44;5.45;;;1.98;;
11823;SDS011;5969;50.780;7.726;2023-03-14T03:06:11;7.35;;;2.65;;
11823;SDS011;5969;50.780;7.726;2023-03-14T03:08:38;7.10;;;2.28;;
11823;SDS011;5969;50.780;7.726;2023-03-14T03:11:05;7.80;;;2.15;;
11823;SDS011;5969;50.780;7.726;2023-03-14T03:13:32;7.50;;;1.95;;
11823;SDS011;5969;50.780;7.726;2023-03-14T03:15:59;4.75;;;1.95;;
11823;SDS011;5969;50.780;7.726;2023-03-14T03:18:26;7.63;;;2.83;;
11823;SDS011;5969;50.780;7.726;2023-03-14T03:20:54;7.03;;;2.30;;
11823;SDS011;5969;50.780;7.726;2023-03-14T03:23:21;7.53;;;1.92;;
11823;SDS011;5969;50.780;7.726;2023-03-14T03:25:50;8.10;;;2.40;;
11823;SDS011;5969;50.780;7.726;2023-03-14T03:28:17;8.65;;;2.35;;
11823;SDS011;5969;50.780;7.726;2023-03-14T03:30:44;9.43;;;1.92;;
11823;SDS011;5969;50.780;7.726;2023-03-14T03:33:11;6.80;;;2.20;;
11823;SDS011;5969;50.780;7.726;2023-03-14T03:35:42;6.97;;;2.10;;
11823;SDS011;5969;50.780;7.726;2023-03-14T03:38:12;5.60;;;1.80;;
11823;SDS011;5969;50.780;7.726;2023-03-14T03:40:39;6.53;;;2.50;;
11823;SDS011;5969;50.780;7.726;2023-03-14T03:43:06;6.05;;;2.08;;
11823;SDS011;5969;50.780;7.726;2023-03-14T03:45:33;6.28;;;2.33;;
11823;SDS011;5969;50.780;7.726;2023-03-14T03:48:00;4.95;;;2.10;;
11823;SDS011;5969;50.780;7.726;2023-03-14T03:50:27;8.57;;;2.15;;
11823;SDS011;5969;50.780;7.726;2023-03-14T03:52:54;5.97;;;2.05;;
11823;SDS011;5969;50.780;7.726;2023-03-14T03:55:22;7.07;;;1.88;;
11823;SDS011;5969;50.780;7.726;2023-03-14T03:57:50;6.18;;;2.35;;
11823;SDS011;5969;50.780;7.726;2023-03-14T04:00:17;4.75;;;1.70;;
11823;SDS011;5969;50.780;7.726;2023-03-14T04:02:44;4.57;;;2.15;;
11823;SDS011;5969;50.780;7.726;2023-03-14T04:05:11;9.73;;;2.38;;
11823;SDS011;5969;50.780;7.726;2023-03-14T04:07:38;5.93;;;1.40;;
11823;SDS011;5969;50.780;7.726;2023-03-14T04:10:05;7.43;;;2.03;;
11823;SDS011;5969;50.780;7.726;2023-03-14T04:12:33;5.50;;;1.75;;
11823;SDS011;5969;50.780;7.726;2023-03-14T04:15:00;6.95;;;1.95;;
11823;SDS011;5969;50.780;7.726;2023-03-14T04:17:27;7.82;;;1.80;;
11823;SDS011;5969;50.780;7.726;2023-03-14T04:19:54;4.13;;;1.65;;
11823;SDS011;5969;50.780;7.726;2023-03-14T04:22:20;5.05;;;1.50;;
11823;SDS011;5969;50.780;7.726;2023-03-14T04:24:47;8.15;;;2.00;;
11823;SDS011;5969;50.780;7.726;2023-03-14T04:27:14;7.30;;;2.15;;
11823;SDS011;5969;50.780;7.726;2023-03-14T04:29:42;5.60;;;1.83;;
11823;SDS011;5969;50.780;7.726;2023-03-14T04:32:09;6.22;;;1.52;;
11823;SDS011;5969;50.780;7.726;2023-03-14T04:34:37;8.02;;;1.52;;
11823;SDS011;5969;50.780;7.726;2023-03-14T04:37:04;6.25;;;1.90;;
11823;SDS011;5969;50.780;7.726;2023-03-14T04:39:31;4.22;;;1.40;;
11823;SDS011;5969;50.780;7.726;2023-03-14T04:41:58;6.93;;;1.25;;
11823;SDS011;5969;50.780;7.726;2023-03-14T04:44:25;4.38;;;1.30;;
11823;SDS011;5969;50.780;7.726;2023-03-14T04:46:53;4.93;;;1.00;;
11823;SDS011;5969;50.780;7.726;2023-03-14T04:49:20;2.53;;;0.90;;
11823;SDS011;5969;50.780;7.726;2023-03-14T04:51:47;4.18;;;1.02;;
11823;SDS011;5969;50.780;7.726;2023-03-14T04:54:15;3.42;;;1.10;;
11823;SDS011;5969;50.780;7.726;2023-03-14T04:56:43;3.30;;;1.00;;
11823;SDS011;5969;50.780;7.726;2023-03-14T04:59:09;1.02;;;0.68;;
11823;SDS011;5969;50.780;7.726;2023-03-14T05:01:36;3.22;;;0.98;;
11823;SDS011;5969;50.780;7.726;2023-03-14T05:04:04;2.47;;;0.88;;
11823;SDS011;5969;50.780;7.726;2023-03-14T05:06:31;2.50;;;0.93;;
11823;SDS011;5969;50.780;7.726;2023-03-14T05:08:58;2.22;;;0.93;;
11823;SDS011;5969;50.780;7.726;2023-03-14T05:11:26;1.80;;;0.80;;
11823;SDS011;5969;50.780;7.726;2023-03-14T05:13:54;1.67;;;0.60;;
11823;SDS011;5969;50.780;7.726;2023-03-14T05:16:21;1.23;;;0.75;;
11823;SDS011;5969;50.780;7.726;2023-03-14T05:21:26;2.58;;;1.00;;
11823;SDS011;5969;50.780;7.726;2023-03-14T05:23:56;2.10;;;0.88;;
11823;SDS011;5969;50.780;7.726;2023-03-14T05:26:26;2.35;;;0.98;;
11823;SDS011;5969;50.780;7.726;2023-03-14T05:28:55;1.58;;;0.85;;
11823;SDS011;5969;50.780;7.726;2023-03-14T05:31:22;1.92;;;0.82;;
11823;SDS011;5969;50.780;7.726;2023-03-14T05:33:49;1.75;;;0.73;;
11823;SDS011;5969;50.780;7.726;2023-03-14T05:36:16;3.72;;;1.08;;
11823;SDS011;5969;50.780;7.726;2023-03-14T05:38:48;2.15;;;0.80;;
11823;SDS011;5969;50.780;7.726;2023-03-14T05:41:15;3.60;;;0.80;;
11823;SDS011;5969;50.780;7.726;2023-03-14T05:43:41;2.20;;;0.80;;
11823;SDS011;5969;50.780;7.726;2023-03-14T05:46:08;0.93;;;0.70;;
11823;SDS011;5969;50.780;7.726;2023-03-14T05:48:39;2.28;;;0.80;;
11823;SDS011;5969;50.780;7.726;2023-03-14T05:51:06;1.05;;;0.60;;
11823;SDS011;5969;50.780;7.726;2023-03-14T05:53:33;2.30;;;0.93;;
11823;SDS011;5969;50.780;7.726;2023-03-14T05:56:01;1.85;;;0.77;;
11823;SDS011;5969;50.780;7.726;2023-03-14T05:58:30;3.22;;;0.80;;
11823;SDS011;5969;50.780;7.726;2023-03-14T06:00:57;2.40;;;0.77;;
11823;SDS011;5969;50.780;7.726;2023-03-14T06:03:29;0.70;;;0.70;;
11823;SDS011;5969;50.780;7.726;2023-03-14T06:05:56;1.60;;;0.80;;
11823;SDS011;5969;50.780;7.726;2023-03-14T06:08:25;2.60;;;0.70;;
11823;SDS011;5969;50.780;7.726;2023-03-14T06:10:53;1.23;;;0.80;;
11823;SDS011;5969;50.780;7.726;2023-03-14T06:13:21;1.92;;;0.70;;
11823;SDS011;5969;50.780;7.726;2023-03-14T06:15:48;0.63;;;0.50;;
11823;SDS011;5969;50.780;7.726;2023-03-14T06:18:14;1.00;;;0.75;;
11823;SDS011;5969;50.780;7.726;2023-03-14T06:20:41;1.33;;;0.70;;
11823;SDS011;5969;50.780;7.726;2023-03-14T09:41:48;0.50;;;0.40;;
11823;SDS011;5969;50.780;7.726;2023-03-14T09:44:18;0.77;;;0.38;;
11823;SDS011;5969;50.780;7.726;2023-03-14T09:46:50;0.70;;;0.43;;
11823;SDS011;5969;50.780;7.726;2023-03-14T09:49:20;0.68;;;0.50;;
11823;SDS011;5969;50.780;7.726;2023-03-14T09:51:50;0.77;;;0.50;;
11823;SDS011;5969;50.780;7.726;2023-03-14T09:54:34;0.50;;;0.40;;
11823;SDS011;5969;50.780;7.726;2023-03-14T09:57:05;0.63;;;0.40;;
11823;SDS011;5969;50.780;7.726;2023-03-14T09:59:33;0.57;;;0.40;;
11823;SDS011;5969;50.780;7.726;2023-03-14T10:02:01;0.98;;;0.50;;
11823;SDS011;5969;50.780;7.726;2023-03-14T10:04:38;1.50;;;1.40;;
11823;SDS011;5969;50.780;7.726;2023-03-14T10:07:09;0.63;;;0.40;;
11823;SDS011;5969;50.780;7.726;2023-03-14T10:09:42;0.75;;;0.63;;
11823;SDS011;5969;50.780;7.726;2023-03-14T10:12:11;2.95;;;2.03;;
11823;SDS011;5969;50.780;7.726;2023-03-14T10:14:45;2.50;;;1.92;;
11823;SDS011;5969;50.780;7.726;2023-03-14T10:17:14;13.13;;;8.48;;
11823;SDS011;5969;50.780;7.726;2023-03-14T10:19:52;3.90;;;2.40;;
11823;SDS011;5969;50.780;7.726;2023-03-14T10:22:21;1.20;;;0.80;;
11823;SDS011;5969;50.780;7.726;2023-03-14T10:24:51;2.08;;;1.20;;
11823;SDS011;5969;50.780;7.726;2023-03-14T10:27:23;5.57;;;3.95;;
11823;SDS011;5969;50.780;7.726;2023-03-14T10:29:55;6.88;;;3.80;;
11823;SDS011;5969;50.780;7.726;2023-03-14T10:32:27;1.58;;;1.27;;
11823;SDS011;5969;50.780;7.726;2023-03-14T10:35:05;3.13;;;1.25;;
11823;SDS011;5969;50.780;7.726;2023-03-14T10:37:35;0.75;;;0.75;;
11823;SDS011;5969;50.780;7.726;2023-03-14T10:40:03;1.45;;;1.30;;
11823;SDS011;5969;50.780;7.726;2023-03-14T10:42:33;0.77;;;0.77;;
11823;SDS011;5969;50.780;7.726;2023-03-14T10:45:06;2.03;;;0.80;;
11823;SDS011;5969;50.780;7.726;2023-03-14T10:47:54;0.90;;;0.90;;
11823;SDS011;5969;50.780;7.726;2023-03-14T10:50:24;1.15;;;0.90;;
11823;SDS011;5969;50.780;7.726;2023-03-14T10:52:54;2.10;;;1.00;;
11823;SDS011;5969;50.780;7.726;2023-03-14T10:55:22;1.45;;;0.90;;
11823;SDS011;5969;50.780;7.726;2023-03-14T10:57:52;1.10;;;1.00;;
11823;SDS011;5969;50.780;7.726;2023-03-14T11:00:20;1.20;;;1.10;;
11823;SDS011;5969;50.780;7.726;2023-03-14T11:03:00;2.08;;;1.08;;
11823;SDS011;5969;50.780;7.726;2023-03-14T11:05:34;1.77;;;1.67;;
11823;SDS011;5969;50.780;7.726;2023-03-14T11:08:07;3.00;;;2.70;;
11823;SDS011;5969;50.780;7.726;2023-03-14T11:10:38;1.20;;;1.10;;
11823;SDS011;5969;50.780;7.726;2023-03-14T11:13:14;2.05;;;1.85;;
11823;SDS011;5969;50.780;7.726;2023-03-14T11:15:45;2.30;;;2.10;;
11823;SDS011;5969;50.780;7.726;2023-03-14T11:21:17;2.67;;;2.47;;
11823;SDS011;5969;50.780;7.726;2023-03-14T11:23:50;1.83;;;1.73;;
11823;SDS011;5969;50.780;7.726;2023-03-14T11:26:27;1.20;;;1.02;;
11823;SDS011;5969;50.780;7.726;2023-03-14T11:29:08;1.80;;;1.70;;
11823;SDS011;5969;50.780;7.726;2023-03-14T11:31:43;1.73;;;1.60;;
11823;SDS011;5969;50.780;7.726;2023-03-14T11:34:13;5.03;;;4.40;;
11823;SDS011;5969;50.780;7.726;2023-03-14T11:36:44;5.97;;;5.28;;
11823;SDS011;5969;50.780;7.726;2023-03-14T11:39:18;4.25;;;3.95;;
11823;SDS011;5969;50.780;7.726;2023-03-14T11:41:46;1.63;;;1.52;;
11823;SDS011;5969;50.780;7.726;2023-03-14T11:44:16;6.50;;;5.90;;
11823;SDS011;5969;50.780;7.726;2023-03-14T11:46:46;4.70;;;3.22;;
11823;SDS011;5969;50.780;7.726;2023-03-14T11:49:21;4.70;;;4.30;;
11823;SDS011;5969;50.780;7.726;2023-03-14T11:51:59;2.45;;;2.25;;
11823;SDS011;5969;50.780;7.726;2023-03-14T11:54:33;3.55;;;3.13;;
11823;SDS011;5969;50.780;7.726;2023-03-14T11:57:10;2.28;;;1.55;;
11823;SDS011;5969;50.780;7.726;2023-03-14T11:59:45;1.63;;;1.40;;
11823;SDS011;5969;50.780;7.726;2023-03-14T12:02:17;1.88;;;1.40;;
11823;SDS011;5969;50.780;7.726;2023-03-14T12:04:51;2.97;;;1.80;;
11823;SDS011;5969;50.780;7.726;2023-03-14T12:07:37;2.33;;;1.70;;
11823;SDS011;5969;50.780;7.726;2023-03-14T12:10:10;2.03;;;1.83;;
11823;SDS011;5969;50.780;7.726;2023-03-14T12:12:39;1.50;;;1.40;;
11823;SDS011;5969;50.780;7.726;2023-03-14T12:15:19;1.85;;;1.65;;
11823;SDS011;5969;50.780;7.726;2023-03-14T12:17:52;2.05;;;1.85;;
11823;SDS011;5969;50.780;7.726;2023-03-14T12:20:27;2.90;;;2.10;;
11823;SDS011;5969;50.780;7.726;2023-03-14T12:23:01;2.20;;;1.70;;
11823;SDS011;5969;50.780;7.726;2023-03-14T12:25:30;2.83;;;2.63;;
11823;SDS011;5969;50.780;7.726;2023-03-14T12:28:03;1.75;;;1.65;;
11823;SDS011;5969;50.780;7.726;2023-03-14T12:30:43;2.60;;;2.35;;
11823;SDS011;5969;50.780;7.726;2023-03-14T12:33:11;1.88;;;1.70;;
11823;SDS011;5969;50.780;7.726;2023-03-14T12:35:46;1.92;;;1.80;;
11823;SDS011;5969;50.780;7.726;2023-03-14T12:38:15;1.83;;;1.48;;
11823;SDS011;5969;50.780;7.726;2023-03-14T12:40:50;1.77;;;1.58;;
11823;SDS011;5969;50.780;7.726;2023-03-14T12:43:26;2.10;;;1.50;;
11823;SDS011;5969;50.780;7.726;2023-03-14T12:46:08;2.10;;;1.25;;
11823;SDS011;5969;50.780;7.726;2023-03-14T12:48:46;1.20;;;1.10;;
11823;SDS011;5969;50.780;7.726;2023-03-14T12:51:15;1.48;;;1.10;;
11823;SDS011;5969;50.780;7.726;2023-03-14T12:53:53;1.17;;;1.10;;
11823;SDS011;5969;50.780;7.726;2023-03-14T12:56:39;1.38;;;1.27;;
11823;SDS011;5969;50.780;7.726;2023-03-14T12:59:37;1.50;;;1.40;;
11823;SDS011;5969;50.780;7.726;2023-03-14T13:02:17;2.22;;;2.00;;
11823;SDS011;5969;50.780;7.726;2023-03-14T13:04:59;3.38;;;1.63;;
11823;SDS011;5969;50.780;7.726;2023-03-14T13:07:36;2.75;;;1.80;;
11823;SDS011;5969;50.780;7.726;2023-03-14T13:10:48;2.13;;;1.98;;
11823;SDS011;5969;50.780;7.726;2023-03-14T13:13:19;2.67;;;1.90;;
11823;SDS011;5969;50.780;7.726;2023-03-14T13:15:48;1.85;;;1.75;;
11823;SDS011;5969;50.780;7.726;2023-03-14T13:18:23;3.00;;;1.85;;
11823;SDS011;5969;50.780;7.726;2023-03-14T13:20:55;2.65;;;2.45;;
11823;SDS011;5969;50.780;7.726;2023-03-14T13:23:27;2.38;;;2.17;;
11823;SDS011;5969;50.780;7.726;2023-03-14T13:25:56;2.67;;;2.47;;
11823;SDS011;5969;50.780;7.726;2023-03-14T13:28:28;2.63;;;2.42;;
11823;SDS011;5969;50.780;7.726;2023-03-14T13:31:02;2.30;;;2.10;;
11823;SDS011;5969;50.780;7.726;2023-03-14T13:34:00;2.13;;;1.90;;
11823;SDS011;5969;50.780;7.726;2023-03-14T13:39:50;2.00;;;1.90;;
11823;SDS011;5969;50.780;7.726;2023-03-14T13:42:18;2.80;;;1.90;;
11823;SDS011;5969;50.780;7.726;2023-03-14T13:48:17;2.20;;;2.00;;
11823;SDS011;5969;50.780;7.726;2023-03-14T13:50:45;2.65;;;2.13;;
11823;SDS011;5969;50.780;7.726;2023-03-14T13:53:16;2.95;;;1.83;;
11823;SDS011;5969;50.780;7.726;2023-03-14T13:55:46;3.22;;;2.20;;
11823;SDS011;5969;50.780;7.726;2023-03-14T13:58:19;2.95;;;2.03;;
11823;SDS011;5969;50.780;7.726;2023-03-14T14:00:55;2.22;;;1.58;;
11823;SDS011;5969;50.780;7.726;2023-03-14T14:03:26;1.90;;;1.80;;
11823;SDS011;5969;50.780;7.726;2023-03-14T14:05:54;2.10;;;1.90;;
11823;SDS011;5969;50.780;7.726;2023-03-14T14:08:23;1.65;;;1.55;;
11823;SDS011;5969;50.780;7.726;2023-03-14T14:10:52;2.45;;;1.67;;
11823;SDS011;5969;50.780;7.726;2023-03-14T14:15:55;2.30;;;1.98;;
11823;SDS011;5969;50.780;7.726;2023-03-14T14:18:26;2.00;;;1.90;;
11823;SDS011;5969;50.780;7.726;2023-03-14T14:20:54;2.25;;;2.00;;
11823;SDS011;5969;50.780;7.726;2023-03-14T14:23:22;2.05;;;1.80;;
11823;SDS011;5969;50.780;7.726;2023-03-14T14:25:58;4.00;;;1.73;;
11823;SDS011;5969;50.780;7.726;2023-03-14T14:28:28;1.60;;;1.50;;
11823;SDS011;5969;50.780;7.726;2023-03-14T14:31:00;2.50;;;1.60;;
11823;SDS011;5969;50.780;7.726;2023-03-14T14:36:21;1.88;;;1.67;;
11823;SDS011;5969;50.780;7.726;2023-03-14T14:38:53;3.90;;;2.03;;
11823;SDS011;5969;50.780;7.726;2023-03-14T14:41:27;1.90;;;1.80;;
11823;SDS011;5969;50.780;7.726;2023-03-14T14:43:56;2.28;;;1.80;;
11823;SDS011;5969;50.780;7.726;2023-03-14T14:46:28;4.13;;;2.20;;
11823;SDS011;5969;50.780;7.726;2023-03-14T14:49:05;2.65;;;1.92;;
11823;SDS011;5969;50.780;7.726;2023-03-14T14:51:47;1.50;;;1.40;;
11823;SDS011;5969;50.780;7.726;2023-03-14T14:54:16;2.63;;;2.20;;
11823;SDS011;5969;50.780;7.726;2023-03-14T14:56:47;3.10;;;2.42;;
11823;SDS011;5969;50.780;7.726;2023-03-14T14:59:20;4.00;;;2.33;;
11823;SDS011;5969;50.780;7.726;2023-03-14T15:01:49;4.50;;;2.40;;
11823;SDS011;5969;50.780;7.726;2023-03-14T15:04:21;4.30;;;2.38;;
11823;SDS011;5969;50.780;7.726;2023-03-14T15:06:53;6.43;;;2.30;;
11823;SDS011;5969;50.780;7.726;2023-03-14T15:15:55;7.10;;;2.05;;
11823;SDS011;5969;50.780;7.726;2023-03-14T15:18:28;2.50;;;1.48;;
11823;SDS011;5969;50.780;7.726;2023-03-14T15:20:58;5.43;;;1.92;;
11823;SDS011;5969;50.780;7.726;2023-03-14T15:36:59;7.53;;;1.73;;
11823;SDS011;5969;50.780;7.726;2023-03-14T15:39:53;6.85;;;2.70;;
11823;SDS011;5969;50.780;7.726;2023-03-14T15:42:53;8.05;;;1.80;;
11823;SDS011;5969;50.780;7.726;2023-03-14T15:45:29;8.02;;;2.15;;
11823;SDS011;5969;50.780;7.726;2023-03-14T15:47:56;8.98;;;2.20;;
11823;SDS011;5969;50.780;7.726;2023-03-14T15:50:23;6.72;;;2.63;;
11823;SDS011;5969;50.780;7.726;2023-03-14T15:52:52;6.32;;;2.10;;
11823;SDS011;5969;50.780;7.726;2023-03-14T15:55:20;8.63;;;2.13;;
11823;SDS011;5969;50.780;7.726;2023-03-14T15:57:47;6.70;;;2.28;;
11823;SDS011;5969;50.780;7.726;2023-03-14T16:00:17;9.18;;;2.38;;
11823;SDS011;5969;50.780;7.726;2023-03-14T16:02:47;7.88;;;2.10;;
11823;SDS011;5969;50.780;7.726;2023-03-14T16:05:14;6.63;;;2.47;;
11823;SDS011;5969;50.780;7.726;2023-03-14T16:07:42;6.40;;;2.45;;
11823;SDS011;5969;50.780;7.726;2023-03-14T16:10:12;6.45;;;3.08;;
11823;SDS011;5969;50.780;7.726;2023-03-14T16:12:39;15.02;;;6.15;;
11823;SDS011;5969;50.780;7.726;2023-03-14T16:15:07;11.32;;;4.40;;
11823;SDS011;5969;50.780;7.726;2023-03-14T16:17:41;24.65;;;12.77;;
11823;SDS011;5969;50.780;7.726;2023-03-14T16:20:08;14.95;;;6.18;;
11823;SDS011;5969;50.780;7.726;2023-03-14T16:22:36;16.08;;;8.77;;
11823;SDS011;5969;50.780;7.726;2023-03-14T16:25:04;10.20;;;4.07;;
11823;SDS011;5969;50.780;7.726;2023-03-14T16:27:33;11.75;;;3.97;;
11823;SDS011;5969;50.780;7.726;2023-03-14T16:30:00;12.27;;;4.70;;
11823;SDS011;5969;50.780;7.726;2023-03-14T16:32:27;8.68;;;3.42;;
11823;SDS011;5969;50.780;7.726;2023-03-14T16:34:54;10.18;;;3.20;;
11823;SDS011;5969;50.780;7.726;2023-03-14T16:37:22;11.27;;;3.38;;
11823;SDS011;5969;50.780;7.726;2023-03-14T16:39:51;13.35;;;4.00;;
11823;SDS011;5969;50.780;7.726;2023-03-14T16:42:19;15.05;;;4.93;;
11823;SDS011;5969;50.780;7.726;2023-03-14T16:44:48;11.05;;;6.80;;
11823;SDS011;5969;50.780;7.726;2023-03-14T16:47:15;9.77;;;4.13;;
11823;SDS011;5969;50.780;7.726;2023-03-14T16:49:42;13.07;;;3.72;;
11823;SDS011;5969;50.780;7.726;2023-03-14T16:52:10;13.80;;;4.38;;
11823;SDS011;5969;50.780;7.726;2023-03-14T16:54:39;12.77;;;3.35;;
11823;SDS011;5969;50.780;7.726;2023-03-14T16:57:06;6.72;;;2.95;;
11823;SDS011;5969;50.780;7.726;2023-03-14T16:59:33;10.65;;;3.20;;
11823;SDS011;5969;50.780;7.726;2023-03-14T17:02:02;14.52;;;4.40;;
11823;SDS011;5969;50.780;7.726;2023-03-14T17:04:39;15.65;;;4.03;;
11823;SDS011;5969;50.780;7.726;2023-03-14T17:07:11;9.32;;;2.83;;
11823;SDS011;5969;50.780;7.726;2023-03-14T17:09:39;11.82;;;4.68;;
11823;SDS011;5969;50.780;7.726;2023-03-14T17:12:06;15.13;;;3.90;;
11823;SDS011;5969;50.780;7.726;2023-03-14T17:14:34;14.88;;;6.00;;
11823;SDS011;5969;50.780;7.726;2023-03-14T17:17:03;16.52;;;4.03;;
11823;SDS011;5969;50.780;7.726;2023-03-14T17:19:30;17.23;;;5.00;;
11823;SDS011;5969;50.780;7.726;2023-03-14T17:22:01;17.48;;;7.00;;
11823;SDS011;5969;50.780;7.726;2023-03-14T17:27:16;16.85;;;6.63;;
11823;SDS011;5969;50.780;7.726;2023-03-14T17:30:01;11.85;;;5.15;;
11823;SDS011;5969;50.780;7.726;2023-03-14T17:32:30;10.27;;;4.88;;
11823;SDS011;5969;50.780;7.726;2023-03-14T17:34:56;15.52;;;5.85;;
11823;SDS011;5969;50.780;7.726;2023-03-14T17:40:39;9.60;;;4.97;;
11823;SDS011;5969;50.780;7.726;2023-03-14T17:43:15;13.23;;;4.78;;
11823;SDS011;5969;50.780;7.726;2023-03-14T17:45:44;11.50;;;4.90;;
11823;SDS011;5969;50.780;7.726;2023-03-14T17:48:14;15.75;;;6.75;;
11823;SDS011;5969;50.780;7.726;2023-03-14T17:50:42;16.05;;;7.05;;
11823;SDS011;5969;50.780;7.726;2023-03-14T17:53:11;12.43;;;7.47;;
11823;SDS011;5969;50.780;7.726;2023-03-14T17:55:38;15.88;;;7.15;;
11823;SDS011;5969;50.780;7.726;2023-03-14T17:58:05;12.52;;;6.20;;
11823;SDS011;5969;50.780;7.726;2023-03-14T18:00:32;10.52;;;6.28;;
11823;SDS011;5969;50.780;7.726;2023-03-14T18:02:59;8.93;;;5.35;;
11823;SDS011;5969;50.780;7.726;2023-03-14T18:05:27;12.95;;;5.43;;
11823;SDS011;5969;50.780;7.726;2023-03-14T18:07:55;11.82;;;6.18;;
11823;SDS011;5969;50.780;7.726;2023-03-14T18:10:24;13.43;;;6.47;;
11823;SDS011;5969;50.780;7.726;2023-03-14T18:12:51;13.90;;;6.13;;
11823;SDS011;5969;50.780;7.726;2023-03-14T18:15:18;13.27;;;6.35;;
11823;SDS011;5969;50.780;7.726;2023-03-14T18:17:45;13.82;;;7.53;;
11823;SDS011;5969;50.780;7.726;2023-03-14T18:20:12;14.23;;;7.90;;
11823;SDS011;5969;50.780;7.726;2023-03-14T18:22:40;10.88;;;6.35;;
11823;SDS011;5969;50.780;7.726;2023-03-14T18:25:09;11.00;;;6.25;;
11823;SDS011;5969;50.780;7.726;2023-03-14T18:27:38;10.45;;;6.78;;
11823;SDS011;5969;50.780;7.726;2023-03-14T18:30:10;12.18;;;6.50;;
11823;SDS011;5969;50.780;7.726;2023-03-14T18:32:39;12.15;;;6.28;;
11823;SDS011;5969;50.780;7.726;2023-03-14T18:35:06;13.63;;;6.55;;
11823;SDS011;5969;50.780;7.726;2023-03-14T18:37:37;10.32;;;6.75;;
11823;SDS011;5969;50.780;7.726;2023-03-14T18:40:06;13.75;;;6.90;;
11823;SDS011;5969;50.780;7.726;2023-03-14T18:42:46;9.43;;;6.25;;
11823;SDS011;5969;50.780;7.726;2023-03-14T18:45:22;7.07;;;6.13;;
11823;SDS011;5969;50.780;7.726;2023-03-14T18:53:26;12.32;;;6.20;;
11823;SDS011;5969;50.780;7.726;2023-03-14T18:56:01;10.18;;;5.78;;
11823;SDS011;5969;50.780;7.726;2023-03-14T18:58:28;11.70;;;7.10;;
11823;SDS011;5969;50.780;7.726;2023-03-14T19:00:58;10.38;;;5.97;;
11823;SDS011;5969;50.780;7.726;2023-03-14T19:03:26;13.90;;;6.78;;
11823;SDS011;5969;50.780;7.726;2023-03-14T19:05:54;11.38;;;5.53;;
11823;SDS011;5969;50.780;7.726;2023-03-14T19:08:22;14.13;;;6.00;;
11823;SDS011;5969;50.780;7.726;2023-03-14T19:10:53;11.35;;;5.38;;
11823;SDS011;5969;50.780;7.726;2023-03-14T19:13:28;9.02;;;5.55;;
11823;SDS011;5969;50.780;7.726;2023-03-14T19:15:57;11.50;;;5.57;;
11823;SDS011;5969;50.780;7.726;2023-03-14T19:18:28;12.02;;;6.30;;
11823;SDS011;5969;50.780;7.726;2023-03-14T19:21:09;20.35;;;12.20;;
11823;SDS011;5969;50.780;7.726;2023-03-14T19:23:38;54.72;;;27.75;;
11823;SDS011;5969;50.780;7.726;2023-03-14T19:26:06;16.10;;;7.85;;